createdAt,value
2022-11-29T00:01:39.482Z,34.17
2022-11-29T00:04:06.970Z,35.38
2022-11-29T00:06:35.611Z,33.63
2022-11-29T00:09:11.414Z,32.20
2022-11-29T00:11:59.197Z,32.00
2022-11-29T00:14:28.153Z,34.22
2022-11-29T00:17:01.759Z,31.70
2022-11-29T00:19:32.212Z,31.73
2022-11-29T00:22:00.831Z,33.97
2022-11-29T00:24:31.438Z,31.45
2022-11-29T00:26:59.091Z,32.55
2022-11-29T00:29:28.076Z,31.83
2022-11-29T00:31:55.537Z,31.58
2022-11-29T00:34:23.027Z,32.28
2022-11-29T00:36:50.440Z,33.03
2022-11-29T00:39:18.724Z,30.90
2022-11-29T00:41:46.137Z,30.70
2022-11-29T00:44:19.616Z,30.95
2022-11-29T00:46:48.486Z,31.60
2022-11-29T00:49:16.251Z,32.10
2022-11-29T00:51:43.599Z,31.80
2022-11-29T00:54:10.971Z,30.30
2022-11-29T00:56:38.446Z,31.15
2022-11-29T00:59:05.879Z,33.17
2022-11-29T01:01:33.272Z,35.63
2022-11-29T01:04:02.333Z,33.03
2022-11-29T01:06:29.836Z,31.27
2022-11-29T01:08:57.194Z,32.33
2022-11-29T01:11:27.742Z,31.50
2022-11-29T01:13:59.556Z,31.75
2022-11-29T01:16:30.191Z,30.98
2022-11-29T01:18:57.713Z,33.85
2022-11-29T01:21:25.187Z,31.33
2022-11-29T01:23:53.595Z,32.28
2022-11-29T01:26:25.224Z,30.60
2022-11-29T01:31:29.457Z,27.60
2022-11-29T01:34:00.995Z,25.15
2022-11-29T01:36:30.125Z,26.35
2022-11-29T01:39:01.225Z,26.73
2022-11-29T01:41:33.133Z,27.02
2022-11-29T01:44:11.514Z,28.85
2022-11-29T01:46:43.724Z,26.98
2022-11-29T01:49:16.705Z,27.50
2022-11-29T01:52:03.851Z,27.15
2022-11-29T01:54:36.878Z,29.45
2022-11-29T01:57:08.199Z,30.70
2022-11-29T01:59:42.170Z,27.75
2022-11-29T02:02:18.177Z,27.67
2022-11-29T02:04:48.273Z,28.27
2022-11-29T02:07:16.294Z,30.08
2022-11-29T02:09:43.756Z,37.15
2022-11-29T02:13:00.676Z,30.83
2022-11-29T02:15:54.989Z,29.75
2022-11-29T02:19:11.561Z,28.08
2022-11-29T02:22:06.490Z,29.20
2022-11-29T02:25:04.819Z,28.90
2022-11-29T02:28:06.112Z,30.38
2022-11-29T02:31:29.476Z,35.57
2022-11-29T02:34:25.534Z,33.88
2022-11-29T02:37:18.481Z,26.60
2022-11-29T02:40:07.745Z,26.58
2022-11-29T02:43:25.113Z,25.05
2022-11-29T02:46:20.419Z,33.22
2022-11-29T02:49:07.670Z,31.75
2022-11-29T02:51:50.983Z,30.75
2022-11-29T02:54:45.725Z,34.53
2022-11-29T02:57:29.398Z,32.70
2022-11-29T03:00:05.455Z,32.25
2022-11-29T03:02:49.921Z,32.30
2022-11-29T03:05:44.653Z,35.53
2022-11-29T03:08:23.501Z,36.88
2022-11-29T03:11:09.119Z,31.90
2022-11-29T03:13:57.046Z,34.03
2022-11-29T03:16:52.267Z,33.70
2022-11-29T03:20:13.186Z,29.80
2022-11-29T03:23:16.166Z,34.25
2022-11-29T03:26:10.491Z,36.05
2022-11-29T03:29:07.178Z,39.20
2022-11-29T03:31:47.562Z,37.83
2022-11-29T03:34:57.408Z,39.40
2022-11-29T03:37:52.901Z,35.50
2022-11-29T03:40:38.504Z,35.38
2022-11-29T03:43:20.125Z,34.40
2022-11-29T03:46:06.231Z,34.97
2022-11-29T03:48:42.656Z,34.03
2022-11-29T03:51:33.644Z,34.22
2022-11-29T03:54:15.015Z,39.40
2022-11-29T03:56:42.837Z,34.75
2022-11-29T03:59:31.543Z,33.60
2022-11-29T04:02:30.316Z,32.05
2022-11-29T04:05:25.337Z,36.72
2022-11-29T04:08:35.016Z,36.15
2022-11-29T04:12:03.522Z,30.88
2022-11-29T04:15:14.119Z,31.60
2022-11-29T04:18:17.556Z,31.52
2022-11-29T04:21:32.348Z,29.55
2022-11-29T04:24:39.097Z,29.95
2022-11-29T04:27:41.364Z,27.70
2022-11-29T04:30:23.571Z,28.80
2022-11-29T04:33:27.445Z,30.77
2022-11-29T04:36:34.501Z,30.70
2022-11-29T04:39:57.303Z,30.90
2022-11-29T04:42:49.122Z,28.63
2022-11-29T04:45:33.064Z,30.60
2022-11-29T04:48:30.393Z,29.88
2022-11-29T04:51:29.419Z,30.45
2022-11-29T04:54:35.150Z,31.02
2022-11-29T04:57:20.740Z,30.02
2022-11-29T05:00:09.787Z,32.70
2022-11-29T05:03:13.497Z,30.88
2022-11-29T05:06:03.109Z,33.47
2022-11-29T05:08:55.996Z,32.03
2022-11-29T05:11:49.980Z,37.78
2022-11-29T05:15:22.200Z,35.63
2022-11-29T05:18:21.101Z,36.10
2022-11-29T05:21:29.361Z,32.85
2022-11-29T05:24:17.264Z,36.63
2022-11-29T05:27:10.829Z,34.03
2022-11-29T05:30:02.523Z,34.55
2022-11-29T05:33:00.184Z,33.50
2022-11-29T05:35:53.559Z,34.35
2022-11-29T05:39:11.450Z,35.15
2022-11-29T05:42:09.757Z,37.70
2022-11-29T05:44:48.888Z,33.65
2022-11-29T05:47:31.750Z,34.35
2022-11-29T05:50:22.668Z,37.42
2022-11-29T05:53:10.507Z,34.38
2022-11-29T05:56:16.451Z,33.30
2022-11-29T05:58:56.799Z,36.75
2022-11-29T06:01:34.131Z,40.03
2022-11-29T06:04:18.756Z,39.28
2022-11-29T06:07:01.538Z,36.42
2022-11-29T06:09:49.887Z,34.97
2022-11-29T06:12:23.349Z,41.33
2022-11-29T06:15:31.029Z,36.28
2022-11-29T06:18:16.824Z,35.80
2022-11-29T06:21:14.572Z,38.50
2022-11-29T06:24:25.959Z,36.58
2022-11-29T06:27:25.116Z,35.25
2022-11-29T06:30:04.578Z,36.72
2022-11-29T06:33:06.204Z,38.50
2022-11-29T06:35:52.834Z,37.08
2022-11-29T06:38:32.038Z,36.55
2022-11-29T06:41:02.193Z,34.88
2022-11-29T06:43:31.668Z,34.53
2022-11-29T06:46:13.384Z,33.50
2022-11-29T06:49:02.580Z,32.95
2022-11-29T06:51:58.023Z,33.65
2022-11-29T06:54:45.121Z,36.78
2022-11-29T06:57:37.696Z,32.53
2022-11-29T07:00:11.685Z,36.97
2022-11-29T07:03:16.399Z,33.88
2022-11-29T07:05:44.561Z,31.60
2022-11-29T07:08:22.259Z,34.35
2022-11-29T07:10:54.849Z,33.10
2022-11-29T07:13:23.053Z,34.95
2022-11-29T07:16:33.650Z,33.05
2022-11-29T07:19:21.840Z,33.95
2022-11-29T07:22:22.609Z,34.53
2022-11-29T07:25:09.994Z,32.78
2022-11-29T07:28:09.801Z,32.13
2022-11-29T07:30:57.117Z,30.70
2022-11-29T07:34:14.574Z,30.73
2022-11-29T07:37:25.924Z,30.27
2022-11-29T07:40:19.965Z,31.73
2022-11-29T07:43:27.562Z,33.10
2022-11-29T07:45:57.153Z,32.25
2022-11-29T07:48:24.519Z,35.13
2022-11-29T07:50:51.904Z,31.77
2022-11-29T07:53:22.805Z,30.65
2022-11-29T07:55:50.956Z,33.05
2022-11-29T07:58:19.021Z,29.95
2022-11-29T08:00:46.633Z,30.58
2022-11-29T08:03:14.537Z,31.35
2022-11-29T08:05:47.381Z,29.23
2022-11-29T08:08:15.564Z,30.25
2022-11-29T08:10:43.332Z,30.02
2022-11-29T08:13:10.721Z,29.50
2022-11-29T08:15:45.422Z,28.52
2022-11-29T08:18:16.814Z,28.38
2022-11-29T08:20:46.086Z,28.55
2022-11-29T08:23:14.683Z,29.20
2022-11-29T08:25:42.398Z,28.35
2022-11-29T08:28:09.799Z,25.33
2022-11-29T08:30:37.339Z,25.73
2022-11-29T08:33:05.452Z,26.85
2022-11-29T08:35:35.478Z,28.25
2022-11-29T08:38:03.821Z,28.13
2022-11-29T08:40:31.256Z,28.70
2022-11-29T08:42:58.620Z,26.27
2022-11-29T08:45:26.058Z,27.17
2022-11-29T08:47:53.432Z,26.42
2022-11-29T08:50:21.373Z,25.98
2022-11-29T08:53:10.990Z,25.63
2022-11-29T08:55:42.776Z,26.15
2022-11-29T08:58:14.411Z,25.23
2022-11-29T09:00:46.759Z,26.92
2022-11-29T09:03:32.733Z,28.05
2022-11-29T09:06:11.937Z,26.83
2022-11-29T09:08:44.189Z,25.42
2022-11-29T09:11:16.016Z,24.67
2022-11-29T09:16:20.146Z,21.70
2022-11-29T09:18:51.881Z,23.35
2022-11-29T09:21:19.883Z,23.92
2022-11-29T09:23:47.868Z,25.02
2022-11-29T09:26:20.128Z,24.55
2022-11-29T09:28:47.586Z,23.02
2022-11-29T09:31:17.822Z,23.90
2022-11-29T09:33:45.757Z,23.52
2022-11-29T09:36:13.697Z,22.38
2022-11-29T09:38:41.500Z,24.25
2022-11-29T09:41:50.661Z,24.92
2022-11-29T09:45:05.821Z,23.13
2022-11-29T09:47:58.336Z,22.55
2022-11-29T09:50:43.165Z,25.60
2022-11-29T09:53:33.310Z,24.35
2022-11-29T09:56:23.864Z,24.92
2022-11-29T09:59:05.712Z,24.27
2022-11-29T10:04:19.017Z,24.42
2022-11-29T10:07:11.148Z,22.48
2022-11-29T10:09:51.953Z,23.50
2022-11-29T10:12:39.779Z,24.27
2022-11-29T10:15:23.007Z,24.75
2022-11-29T10:18:02.304Z,22.90
2022-11-29T10:20:40.643Z,24.13
2022-11-29T10:23:51.160Z,24.30
2022-11-29T10:26:20.716Z,21.48
2022-11-29T10:28:49.344Z,21.60
2022-11-29T10:31:32.572Z,20.73
2022-11-29T10:34:07.954Z,20.85
2022-11-29T10:37:10.655Z,21.80
2022-11-29T10:40:04.242Z,20.88
2022-11-29T10:42:52.371Z,24.08
2022-11-29T10:45:33.955Z,22.85
2022-11-29T10:48:11.786Z,21.70
2022-11-29T10:50:44.100Z,20.65
2022-11-29T10:53:25.743Z,20.73
2022-11-29T10:55:56.146Z,21.23
2022-11-29T10:58:29.633Z,19.80
2022-11-29T11:01:07.811Z,21.45
2022-11-29T11:03:42.947Z,20.33
2022-11-29T11:06:21.128Z,21.63
2022-11-29T11:08:56.282Z,19.38
2022-11-29T11:11:33.944Z,18.50
2022-11-29T11:14:24.077Z,18.52
2022-11-29T11:16:52.757Z,19.35
2022-11-29T11:19:34.441Z,20.00
2022-11-29T11:22:04.299Z,21.63
2022-11-29T11:24:39.707Z,20.33
2022-11-29T11:27:08.152Z,21.15
2022-11-29T11:29:41.901Z,22.40
2022-11-29T11:32:23.121Z,21.63
2022-11-29T11:35:00.989Z,22.60
2022-11-29T11:37:35.662Z,21.25
2022-11-29T11:40:39.363Z,21.67
2022-11-29T11:43:20.621Z,19.25
2022-11-29T11:45:54.780Z,19.08
2022-11-29T11:48:22.542Z,17.67
2022-11-29T11:50:54.402Z,17.35
2022-11-29T11:53:36.517Z,16.27
2022-11-29T11:56:14.206Z,15.93
2022-11-29T11:58:52.218Z,16.65
2022-11-29T12:01:35.919Z,16.48
2022-11-29T12:04:19.705Z,17.50
2022-11-29T12:07:38.721Z,19.05
2022-11-29T12:10:22.599Z,19.15
2022-11-29T12:12:52.089Z,19.13
2022-11-29T12:15:26.958Z,20.08
2022-11-29T12:18:25.394Z,19.83
2022-11-29T12:21:03.231Z,17.77
2022-11-29T12:23:30.599Z,17.65
2022-11-29T12:26:13.738Z,16.88
2022-11-29T12:28:47.761Z,18.10
2022-11-29T12:31:48.272Z,18.33
2022-11-29T12:34:42.770Z,19.90
2022-11-29T12:37:49.627Z,19.40
2022-11-29T12:41:10.061Z,19.95
2022-11-29T12:44:18.186Z,17.33
2022-11-29T12:50:24.566Z,17.50
2022-11-29T12:53:09.916Z,19.67
2022-11-29T12:56:06.017Z,19.55
2022-11-29T12:59:06.881Z,17.88
2022-11-29T13:02:14.755Z,17.92
2022-11-29T13:04:59.949Z,19.05
2022-11-29T13:08:03.546Z,18.58
2022-11-29T13:11:24.388Z,18.30
2022-11-29T13:17:34.255Z,19.70
2022-11-29T13:20:20.877Z,18.75
2022-11-29T13:23:01.563Z,18.67
2022-11-29T13:25:38.506Z,20.10
2022-11-29T13:28:17.975Z,21.90
2022-11-29T13:30:45.737Z,22.20
2022-11-29T13:33:31.178Z,24.13
2022-11-29T13:36:31.148Z,23.67
2022-11-29T13:39:40.140Z,22.83
2022-11-29T13:42:20.024Z,23.30
2022-11-29T13:45:06.103Z,22.30
2022-11-29T13:47:53.311Z,20.70
2022-11-29T13:50:45.927Z,20.40
2022-11-29T13:53:30.728Z,21.45
2022-11-29T13:56:01.265Z,20.15
2022-11-29T13:58:28.701Z,20.73
2022-11-29T14:01:05.579Z,22.92
2022-11-29T14:03:44.959Z,23.63
2022-11-29T14:06:21.761Z,22.02
2022-11-29T14:09:17.846Z,22.27
2022-11-29T14:11:42.338Z,22.10
2022-11-29T14:14:22.409Z,23.65
2022-11-29T14:17:03.696Z,23.30
2022-11-29T14:19:37.127Z,22.13
2022-11-29T14:22:22.021Z,23.60
2022-11-29T14:25:00.298Z,22.50
2022-11-29T14:27:27.573Z,21.98
2022-11-29T14:29:55.560Z,23.50
2022-11-29T14:32:56.420Z,22.02
2022-11-29T14:35:35.341Z,22.17
2022-11-29T14:38:30.691Z,23.73
2022-11-29T14:41:13.753Z,23.00
2022-11-29T14:43:41.561Z,22.40
2022-11-29T14:46:29.644Z,21.90
2022-11-29T14:48:59.791Z,22.30
2022-11-29T14:51:33.613Z,24.20
2022-11-29T14:54:19.895Z,22.17
2022-11-29T14:56:47.834Z,23.05
2022-11-29T14:59:48.864Z,22.70
2022-11-29T15:02:32.779Z,22.40
2022-11-29T15:05:37.964Z,24.15
2022-11-29T15:08:26.883Z,26.15
2022-11-29T15:11:04.536Z,25.63
2022-11-29T15:13:41.528Z,27.35
2022-11-29T15:16:33.016Z,25.67
2022-11-29T15:19:43.152Z,25.98
2022-11-29T15:22:26.697Z,25.15
2022-11-29T15:25:10.834Z,26.05
2022-11-29T15:27:54.813Z,24.23
2022-11-29T15:30:36.940Z,25.48
2022-11-29T15:33:18.452Z,25.70
2022-11-29T15:35:54.318Z,24.52
2022-11-29T15:38:24.321Z,24.92
2022-11-29T15:40:54.777Z,26.77
2022-11-29T15:43:34.849Z,26.90
2022-11-29T15:46:02.614Z,25.88
2022-11-29T15:48:32.456Z,25.83
2022-11-29T15:51:36.329Z,24.83
2022-11-29T15:54:29.129Z,26.38
2022-11-29T15:57:12.082Z,24.02
2022-11-29T15:59:46.468Z,26.30
2022-11-29T16:02:27.732Z,22.85
2022-11-29T16:05:01.335Z,24.55
2022-11-29T16:07:32.675Z,25.38
2022-11-29T16:10:11.742Z,24.33
2022-11-29T16:13:25.896Z,24.17
2022-11-29T16:16:16.888Z,25.00
2022-11-29T16:18:47.987Z,28.40
2022-11-29T16:21:28.264Z,26.85
2022-11-29T16:23:58.146Z,28.63
2022-11-29T16:26:35.830Z,26.33
2022-11-29T16:29:04.707Z,26.73
2022-11-29T16:31:37.043Z,27.73
2022-11-29T16:34:16.662Z,26.27
2022-11-29T16:36:44.187Z,26.63
2022-11-29T16:39:24.420Z,25.25
2022-11-29T16:42:29.273Z,24.02
2022-11-29T16:45:28.308Z,25.33
2022-11-29T16:47:59.723Z,26.35
2022-11-29T16:50:32.595Z,25.83
2022-11-29T16:53:38.984Z,25.17
2022-11-29T16:56:11.995Z,26.15
2022-11-29T16:59:25.666Z,26.98
2022-11-29T17:01:31.603Z,32.17
2022-11-29T17:04:00.652Z,30.38
2022-11-29T17:06:29.939Z,28.52
2022-11-29T17:08:59.312Z,33.80
2022-11-29T17:11:27.374Z,33.47
2022-11-29T17:13:54.918Z,32.25
2022-11-29T17:16:24.805Z,35.33
2022-11-29T17:18:53.680Z,32.25
2022-11-29T17:21:25.913Z,33.92
2022-11-29T17:23:54.340Z,36.10
2022-11-29T17:26:23.290Z,34.78
2022-11-29T17:28:51.960Z,32.17
2022-11-29T17:31:23.779Z,33.22
2022-11-29T17:33:51.554Z,31.65
2022-11-29T17:36:21.089Z,30.85
2022-11-29T17:38:48.974Z,30.88
2022-11-29T17:41:25.988Z,31.50
2022-11-29T17:43:55.609Z,33.22
2022-11-29T17:46:26.071Z,31.88
2022-11-29T17:48:55.059Z,33.05
2022-11-29T17:54:12.777Z,33.25
2022-11-29T17:56:40.234Z,31.55
2022-11-29T17:59:07.795Z,29.40
2022-11-29T18:01:36.116Z,31.40
2022-11-29T18:04:06.465Z,30.67
2022-11-29T18:06:37.739Z,29.42
2022-11-29T18:09:08.964Z,30.08
2022-11-29T18:11:48.136Z,29.85
2022-11-29T18:14:23.584Z,30.77
2022-11-29T18:16:51.830Z,29.95
2022-11-29T18:19:21.972Z,29.50
2022-11-29T18:21:50.250Z,27.98
2022-11-29T18:24:18.316Z,29.13
2022-11-29T18:26:46.981Z,25.95
2022-11-29T18:29:14.768Z,28.27
2022-11-29T18:31:45.217Z,30.02
2022-11-29T18:34:14.810Z,30.52
2022-11-29T18:36:48.345Z,29.30
2022-11-29T18:39:19.735Z,29.90
2022-11-29T18:41:49.996Z,31.67
2022-11-29T18:44:21.665Z,33.00
2022-11-29T18:49:18.176Z,30.67
2022-11-29T18:51:48.293Z,31.45
2022-11-29T18:54:18.482Z,31.23
2022-11-29T18:56:46.240Z,33.00
2022-11-29T18:59:17.439Z,32.58
2022-11-29T19:01:47.921Z,32.28
2022-11-29T19:04:19.726Z,30.88
2022-11-29T19:06:48.115Z,33.50
2022-11-29T19:09:21.816Z,33.30
2022-11-29T19:11:50.332Z,36.58
2022-11-29T19:14:18.950Z,35.75
2022-11-29T19:16:48.863Z,37.95
2022-11-29T19:19:19.920Z,33.63
2022-11-29T19:21:47.872Z,32.78
2022-11-29T19:24:18.201Z,37.42
2022-11-29T19:26:48.332Z,32.75
2022-11-29T19:29:16.361Z,36.17
2022-11-29T19:31:44.638Z,35.40
2022-11-29T19:34:12.065Z,37.45
2022-11-29T19:36:44.953Z,36.53
2022-11-29T19:39:17.724Z,37.03
2022-11-29T19:41:47.857Z,37.42
2022-11-29T19:44:15.448Z,35.88
2022-11-29T19:46:49.109Z,35.25
2022-11-29T19:49:17.209Z,37.67
2022-11-29T19:51:44.896Z,39.45
2022-11-29T19:54:13.371Z,37.78
2022-11-29T19:56:40.922Z,40.13
2022-11-29T19:59:09.134Z,37.88
2022-11-29T20:01:41.537Z,36.90
2022-11-29T20:04:13.503Z,38.30
2022-11-29T20:06:41.857Z,39.42
2022-11-29T20:09:10.487Z,37.33
2022-11-29T20:11:38.572Z,38.63
2022-11-29T20:14:08.134Z,37.33
2022-11-29T20:16:38.860Z,39.08
2022-11-29T20:19:12.659Z,38.25
2022-11-29T20:21:44.386Z,38.33
2022-11-29T20:26:48.229Z,38.17
2022-11-29T20:29:16.809Z,36.53
2022-11-29T20:31:50.005Z,37.30
2022-11-29T20:34:20.120Z,36.58
2022-11-29T20:37:07.479Z,37.38
2022-11-29T20:39:52.192Z,37.08
2022-11-29T20:42:49.565Z,37.97
2022-11-29T20:45:17.916Z,34.83
2022-11-29T20:48:13.058Z,36.08
2022-11-29T20:50:47.034Z,37.83
2022-11-29T20:53:43.503Z,36.13
2022-11-29T20:56:12.429Z,37.42
2022-11-29T20:58:40.119Z,35.45
2022-11-29T21:01:07.640Z,38.00
2022-11-29T21:03:35.812Z,39.60
2022-11-29T21:06:05.758Z,37.65
2022-11-29T21:08:34.875Z,40.58
2022-11-29T21:11:10.150Z,35.92
2022-11-29T21:13:38.592Z,37.72
2022-11-29T21:16:06.950Z,39.08
2022-11-29T21:18:34.782Z,39.60
2022-11-29T21:21:28.265Z,36.80
2022-11-29T21:24:00.702Z,37.20
2022-11-29T21:26:41.562Z,35.13
2022-11-29T21:29:09.455Z,37.75
2022-11-29T21:31:37.250Z,35.67
2022-11-29T21:34:04.782Z,37.95
2022-11-29T21:36:32.450Z,36.20
2022-11-29T21:39:04.865Z,36.50
2022-11-29T21:41:33.982Z,35.95
2022-11-29T21:44:08.993Z,36.85
2022-11-29T21:46:36.710Z,35.70
2022-11-29T21:49:04.953Z,37.42
2022-11-29T21:51:32.442Z,33.22
2022-11-29T21:54:01.103Z,36.05
2022-11-29T21:56:28.572Z,32.45
2022-11-29T21:58:56.055Z,34.03
2022-11-29T22:01:29.827Z,32.80
2022-11-29T22:03:57.419Z,32.78
2022-11-29T22:06:26.161Z,32.38
2022-11-29T22:08:53.865Z,32.88
2022-11-29T22:11:34.074Z,34.55
2022-11-29T22:14:19.129Z,34.65
2022-11-29T22:16:56.516Z,31.38
2022-11-29T22:19:33.562Z,31.05
2022-11-29T22:22:05.710Z,32.72
2022-11-29T22:24:36.674Z,32.38
2022-11-29T22:27:04.305Z,32.50
2022-11-29T22:29:31.768Z,29.92
2022-11-29T22:31:59.568Z,30.40
2022-11-29T22:34:28.167Z,35.13
2022-11-29T22:36:56.274Z,31.85
2022-11-29T22:39:24.086Z,30.88
2022-11-29T22:41:54.790Z,32.55
2022-11-29T22:44:24.057Z,31.48
2022-11-29T22:46:51.790Z,32.35
2022-11-29T22:49:19.406Z,31.23
2022-11-29T22:51:47.866Z,31.20
2022-11-29T22:54:16.400Z,29.77
2022-11-29T22:56:45.619Z,30.52
2022-11-29T22:59:13.927Z,30.35
2022-11-29T23:01:42.656Z,31.52
2022-11-29T23:04:12.435Z,29.33
2022-11-29T23:06:46.014Z,28.77
2022-11-29T23:09:22.052Z,26.45
2022-11-29T23:11:53.019Z,26.60
2022-11-29T23:14:22.321Z,26.77
2022-11-29T23:16:50.280Z,26.77
2022-11-29T23:19:18.341Z,26.75
2022-11-29T23:21:46.379Z,28.30
2022-11-29T23:24:15.218Z,27.60
2022-11-29T23:26:46.253Z,25.52
2022-11-29T23:29:17.971Z,27.05
2022-11-29T23:34:14.562Z,26.35
2022-11-29T23:36:42.324Z,26.17
2022-11-29T23:39:13.512Z,26.15
2022-11-29T23:41:41.078Z,25.10
2022-11-29T23:44:09.358Z,26.60
2022-11-29T23:46:36.950Z,23.80
2022-11-29T23:49:04.350Z,24.88
2022-11-29T23:51:31.812Z,23.25
2022-11-29T23:53:59.210Z,24.23
2022-11-29T23:56:26.765Z,23.90
2022-11-29T23:58:54.230Z,23.80
